FOOLHTKJ

Guest
Details From FOOL - Leon M Ba
To HTKJ - Kilimanjaro Intl
Flight Number -
Tags Generated
Created
Modified
Stats Distance 1,676 nm / 3,105 km
Max Altitude 0 ft / 0 m
Waypoints 4
Social Downloads 0
Likes 0
Share VATSIM

Download

Looking for another format? Having issues loading an existing format? Contact us
Advertisement - Login to hide

Notes

Generated

Route

FOOL BKV KO HTKJ

ID Type Via Altitude Latitude Longitude Leg Dist Tot Dist Heading (true) Name
O FOOL APT - 0 ft / 0 m 0.47081˚ 9.40635˚ - 0 nm - -
BKV NDB - 0 ft / 0 m -2.30663˚ 28.81936˚ 1177 nm 1177 nm 98° / 98° BUKAVU NDB
KO NDB - 0 ft / 0 m -3.43291˚ 36.99338˚ 494 nm 1672 nm 98° / 98° KILIMANJARO NDB
O HTKJ APT - 0 ft / 0 m -3.43016˚ 37.05829˚ 3 nm 1676 nm 88° / 88° -

Altitude Profile

Advertisement - Login to hide

Weather


0- 5 10 15 20 25 30 35+ Temperature / ° C

Clouds and Precipitation
Forecast for 2018-05-21 18:00 UTC. Updated 4 hours ago

Ground ~20,000 ft ~40,000 ft Winds

FOOL

Details ICAO FOOL (LBV)
Name Leon M Ba
Region Gabon
Timezone Africa/Libreville (UTC+1.0)
Stats Elevation 39 ft / 12 m (AMSL)
Location 0.458616° 9.412250°
Runways 1
Magnetic Variation 1.880° W

METAR

FOOL 212030Z 20007KT 180V240 9999 SCT012 28/25 Q1011 NOSIG

Decode

TAF

TAF FOOL 211700Z 2118/2224 22006KT 9999 SCT011 FEW020CB BKN033 TEMPO 2119/2123 TS PROB30 TEMPO 2123/2205 2500 TSRA BKN008 FEW018CB OVC026 TEMPO 2215/221 TS

Decode

Departure Runways

ID Width Length Bearing (true) Bearing (mag) Surface Threshold Offset Overrun Length
16 148 ft / 45 m 9,889 ft / 3,014 m 154.19° 156.07° Asphalt 0 ft / 0 m 192 ft / 59 m
34 148 ft / 45 m 9,889 ft / 3,014 m 334.19° 336.07° Asphalt 0 ft / 0 m 209 ft / 64 m

HTKJ

Details ICAO HTKJ (JRO)
Name KILIMANJARO INTL
Region Tanzania
Timezone Africa/Dar_es_Salaam (UTC+3.0)
Stats Elevation 2,932 ft / 894 m (AMSL)
Location -3.429455° 37.074499°
Runways 1
Magnetic Variation 0.116° W

METAR

HTKJ 212000Z 06005KT 9999 BKN024 21/18 Q1018 NOSIG

Decode

TAF

TAF HTKJ 211700Z 2118/2218 00000KT 9999 SCT026 BECMG 2122/2201 BKN024

Decode

Destination Runways

ID Width Length Bearing (true) Bearing (mag) Surface Threshold Offset Overrun Length
09 148 ft / 45 m 11,818 ft / 3,602 m 87.51° 87.63° Asphalt 0 ft / 0 m 197 ft / 60 m
27 148 ft / 45 m 11,818 ft / 3,602 m 267.51° 267.63° Asphalt 0 ft / 0 m 197 ft / 60 m

Approach Navaids

Runway Type Ident Frequency Range Bearing (true) Bearing (mag) Slope Elevation
09 Localiser KK 110.90 MHz 18 nm / 33 km 87.43° 87.55° - 2,932 ft / 894 m (AMSL)
09 Glidescope KK 110.90 MHz 10 nm / 19 km 87.51° 87.63° 3.00° 2,932 ft / 894 m (AMSL)

Popular Alternatives